sensor_id;sensor_type;location;lat;lon;timestamp;P1;durP1;ratioP1;P2;durP2;ratioP2
50631;SDS011;49583;45.590;-122.498;2023-09-30T00:00:21;2.10;;;1.00;;
50631;SDS011;49583;45.590;-122.498;2023-09-30T00:02:54;1.90;;;1.20;;
50631;SDS011;49583;45.590;-122.498;2023-09-30T00:05:09;3.30;;;1.20;;
50631;SDS011;49583;45.590;-122.498;2023-09-30T00:07:34;3.30;;;1.10;;
50631;SDS011;49583;45.590;-122.498;2023-09-30T00:09:50;2.70;;;1.00;;
50631;SDS011;49583;45.590;-122.498;2023-09-30T00:12:06;1.00;;;0.90;;
50631;SDS011;49583;45.590;-122.498;2023-09-30T00:14:22;1.40;;;0.90;;
50631;SDS011;49583;45.590;-122.498;2023-09-30T00:16:39;2.70;;;1.10;;
50631;SDS011;49583;45.590;-122.498;2023-09-30T00:18:56;2.70;;;2.00;;
50631;SDS011;49583;45.590;-122.498;2023-09-30T00:21:10;5.30;;;0.90;;
50631;SDS011;49583;45.590;-122.498;2023-09-30T00:23:22;2.90;;;0.90;;
50631;SDS011;49583;45.590;-122.498;2023-09-30T00:25:35;2.20;;;1.00;;
50631;SDS011;49583;45.590;-122.498;2023-09-30T00:27:51;2.60;;;0.90;;
50631;SDS011;49583;45.590;-122.498;2023-09-30T00:30:05;1.50;;;0.80;;
50631;SDS011;49583;45.590;-122.498;2023-09-30T00:32:23;2.10;;;0.80;;
50631;SDS011;49583;45.590;-122.498;2023-09-30T00:34:36;5.70;;;1.00;;
50631;SDS011;49583;45.590;-122.498;2023-09-30T00:36:49;1.70;;;1.00;;
50631;SDS011;49583;45.590;-122.498;2023-09-30T00:39:02;2.40;;;1.00;;
50631;SDS011;49583;45.590;-122.498;2023-09-30T00:41:27;1.50;;;0.90;;
50631;SDS011;49583;45.590;-122.498;2023-09-30T00:43:48;4.70;;;0.90;;
50631;SDS011;49583;45.590;-122.498;2023-09-30T00:46:04;2.20;;;1.10;;
50631;SDS011;49583;45.590;-122.498;2023-09-30T00:48:28;2.00;;;1.10;;
50631;SDS011;49583;45.590;-122.498;2023-09-30T00:50:44;2.20;;;0.80;;
50631;SDS011;49583;45.590;-122.498;2023-09-30T00:52:58;2.80;;;0.90;;
50631;SDS011;49583;45.590;-122.498;2023-09-30T00:55:14;2.90;;;1.30;;
50631;SDS011;49583;45.590;-122.498;2023-09-30T00:57:38;2.80;;;1.10;;
50631;SDS011;49583;45.590;-122.498;2023-09-30T00:59:52;2.80;;;1.00;;
50631;SDS011;49583;45.590;-122.498;2023-09-30T01:02:05;2.20;;;1.00;;
50631;SDS011;49583;45.590;-122.498;2023-09-30T01:04:18;4.00;;;1.30;;
50631;SDS011;49583;45.590;-122.498;2023-09-30T01:06:43;1.30;;;1.00;;
50631;SDS011;49583;45.590;-122.498;2023-09-30T01:09:06;3.70;;;1.00;;
50631;SDS011;49583;45.590;-122.498;2023-09-30T01:11:34;2.70;;;1.40;;
50631;SDS011;49583;45.590;-122.498;2023-09-30T01:13:51;1.70;;;1.20;;
50631;SDS011;49583;45.590;-122.498;2023-09-30T01:16:09;1.70;;;1.50;;
50631;SDS011;49583;45.590;-122.498;2023-09-30T01:18:22;1.50;;;1.10;;
50631;SDS011;49583;45.590;-122.498;2023-09-30T01:20:38;4.00;;;1.20;;
50631;SDS011;49583;45.590;-122.498;2023-09-30T01:22:52;3.60;;;1.50;;
50631;SDS011;49583;45.590;-122.498;2023-09-30T01:25:20;2.60;;;1.70;;
50631;SDS011;49583;45.590;-122.498;2023-09-30T01:27:35;5.80;;;1.30;;
50631;SDS011;49583;45.590;-122.498;2023-09-30T01:29:52;1.60;;;1.20;;
50631;SDS011;49583;45.590;-122.498;2023-09-30T01:32:05;3.50;;;1.50;;
50631;SDS011;49583;45.590;-122.498;2023-09-30T01:34:29;1.40;;;1.20;;
50631;SDS011;49583;45.590;-122.498;2023-09-30T01:36:45;5.80;;;1.20;;
50631;SDS011;49583;45.590;-122.498;2023-09-30T01:39:09;2.10;;;1.40;;
50631;SDS011;49583;45.590;-122.498;2023-09-30T01:41:23;2.50;;;1.20;;
50631;SDS011;49583;45.590;-122.498;2023-09-30T01:43:46;2.20;;;1.40;;
50631;SDS011;49583;45.590;-122.498;2023-09-30T01:46:08;2.90;;;1.50;;
50631;SDS011;49583;45.590;-122.498;2023-09-30T01:48:21;2.90;;;1.50;;
50631;SDS011;49583;45.590;-122.498;2023-09-30T01:50:43;3.70;;;1.40;;
50631;SDS011;49583;45.590;-122.498;2023-09-30T01:52:56;6.90;;;1.70;;
50631;SDS011;49583;45.590;-122.498;2023-09-30T01:55:09;4.80;;;1.50;;
50631;SDS011;49583;45.590;-122.498;2023-09-30T01:57:21;3.30;;;2.20;;
50631;SDS011;49583;45.590;-122.498;2023-09-30T01:59:46;4.90;;;1.50;;
50631;SDS011;49583;45.590;-122.498;2023-09-30T02:02:19;4.80;;;1.60;;
50631;SDS011;49583;45.590;-122.498;2023-09-30T02:04:37;1.70;;;1.50;;
50631;SDS011;49583;45.590;-122.498;2023-09-30T02:06:50;3.70;;;1.50;;
50631;SDS011;49583;45.590;-122.498;2023-09-30T02:09:03;5.30;;;1.60;;
50631;SDS011;49583;45.590;-122.498;2023-09-30T02:11:21;3.30;;;1.50;;
50631;SDS011;49583;45.590;-122.498;2023-09-30T02:13:34;1.70;;;1.60;;
50631;SDS011;49583;45.590;-122.498;2023-09-30T02:15:49;3.30;;;1.50;;
50631;SDS011;49583;45.590;-122.498;2023-09-30T02:18:06;2.40;;;2.00;;
50631;SDS011;49583;45.590;-122.498;2023-09-30T02:20:20;4.10;;;1.80;;
50631;SDS011;49583;45.590;-122.498;2023-09-30T02:22:33;2.10;;;1.50;;
50631;SDS011;49583;45.590;-122.498;2023-09-30T02:24:46;2.50;;;1.40;;
50631;SDS011;49583;45.590;-122.498;2023-09-30T02:27:02;2.30;;;1.50;;
50631;SDS011;49583;45.590;-122.498;2023-09-30T02:29:19;2.20;;;1.40;;
50631;SDS011;49583;45.590;-122.498;2023-09-30T02:31:32;3.10;;;1.10;;
50631;SDS011;49583;45.590;-122.498;2023-09-30T02:33:45;1.60;;;1.30;;
50631;SDS011;49583;45.590;-122.498;2023-09-30T02:36:01;2.60;;;1.60;;
50631;SDS011;49583;45.590;-122.498;2023-09-30T02:38:16;4.10;;;1.40;;
50631;SDS011;49583;45.590;-122.498;2023-09-30T02:40:33;4.60;;;1.70;;
50631;SDS011;49583;45.590;-122.498;2023-09-30T02:42:51;2.20;;;1.40;;
50631;SDS011;49583;45.590;-122.498;2023-09-30T02:45:11;2.00;;;1.30;;
50631;SDS011;49583;45.590;-122.498;2023-09-30T02:47:28;2.70;;;1.40;;
50631;SDS011;49583;45.590;-122.498;2023-09-30T02:49:44;2.10;;;1.50;;
50631;SDS011;49583;45.590;-122.498;2023-09-30T02:51:57;2.90;;;1.60;;
50631;SDS011;49583;45.590;-122.498;2023-09-30T02:54:20;3.40;;;1.30;;
50631;SDS011;49583;45.590;-122.498;2023-09-30T02:56:36;4.20;;;1.40;;
50631;SDS011;49583;45.590;-122.498;2023-09-30T02:59:00;4.40;;;1.30;;
50631;SDS011;49583;45.590;-122.498;2023-09-30T03:01:16;2.00;;;1.60;;
50631;SDS011;49583;45.590;-122.498;2023-09-30T03:03:29;4.40;;;1.30;;
50631;SDS011;49583;45.590;-122.498;2023-09-30T03:05:45;3.10;;;1.50;;
50631;SDS011;49583;45.590;-122.498;2023-09-30T03:07:58;3.30;;;1.80;;
50631;SDS011;49583;45.590;-122.498;2023-09-30T03:10:12;2.50;;;1.20;;
50631;SDS011;49583;45.590;-122.498;2023-09-30T03:12:28;2.40;;;1.70;;
50631;SDS011;49583;45.590;-122.498;2023-09-30T03:14:41;4.90;;;1.80;;
50631;SDS011;49583;45.590;-122.498;2023-09-30T03:16:58;3.20;;;1.50;;
50631;SDS011;49583;45.590;-122.498;2023-09-30T03:19:11;7.40;;;1.70;;
50631;SDS011;49583;45.590;-122.498;2023-09-30T03:21:24;2.00;;;1.40;;
50631;SDS011;49583;45.590;-122.498;2023-09-30T03:23:37;3.40;;;1.50;;
50631;SDS011;49583;45.590;-122.498;2023-09-30T03:25:54;5.50;;;1.30;;
50631;SDS011;49583;45.590;-122.498;2023-09-30T03:28:08;2.50;;;1.80;;
50631;SDS011;49583;45.590;-122.498;2023-09-30T03:30:25;1.90;;;1.50;;
50631;SDS011;49583;45.590;-122.498;2023-09-30T03:32:43;4.70;;;1.70;;
50631;SDS011;49583;45.590;-122.498;2023-09-30T03:34:55;5.50;;;2.30;;
50631;SDS011;49583;45.590;-122.498;2023-09-30T03:37:08;5.50;;;1.70;;
50631;SDS011;49583;45.590;-122.498;2023-09-30T03:39:24;4.10;;;1.70;;
50631;SDS011;49583;45.590;-122.498;2023-09-30T03:41:37;3.80;;;1.80;;
50631;SDS011;49583;45.590;-122.498;2023-09-30T03:43:50;3.60;;;1.60;;
50631;SDS011;49583;45.590;-122.498;2023-09-30T03:46:03;2.00;;;1.60;;
50631;SDS011;49583;45.590;-122.498;2023-09-30T03:48:17;2.50;;;1.70;;
50631;SDS011;49583;45.590;-122.498;2023-09-30T03:50:30;8.00;;;2.60;;
50631;SDS011;49583;45.590;-122.498;2023-09-30T03:52:43;5.50;;;2.10;;
50631;SDS011;49583;45.590;-122.498;2023-09-30T03:54:57;4.00;;;1.50;;
50631;SDS011;49583;45.590;-122.498;2023-09-30T03:57:15;3.60;;;1.90;;
50631;SDS011;49583;45.590;-122.498;2023-09-30T03:59:31;3.20;;;1.70;;
50631;SDS011;49583;45.590;-122.498;2023-09-30T04:01:44;5.60;;;1.90;;
50631;SDS011;49583;45.590;-122.498;2023-09-30T04:03:57;2.50;;;1.50;;
50631;SDS011;49583;45.590;-122.498;2023-09-30T04:06:10;3.50;;;2.10;;
50631;SDS011;49583;45.590;-122.498;2023-09-30T04:08:26;4.30;;;2.00;;
50631;SDS011;49583;45.590;-122.498;2023-09-30T04:10:40;3.60;;;1.80;;
50631;SDS011;49583;45.590;-122.498;2023-09-30T04:12:56;3.20;;;2.40;;
50631;SDS011;49583;45.590;-122.498;2023-09-30T04:15:09;3.40;;;1.80;;
50631;SDS011;49583;45.590;-122.498;2023-09-30T04:17:23;2.70;;;1.60;;
50631;SDS011;49583;45.590;-122.498;2023-09-30T04:19:36;2.10;;;1.70;;
50631;SDS011;49583;45.590;-122.498;2023-09-30T04:21:48;4.10;;;1.60;;
50631;SDS011;49583;45.590;-122.498;2023-09-30T04:24:01;2.80;;;1.80;;
50631;SDS011;49583;45.590;-122.498;2023-09-30T04:26:18;2.10;;;2.00;;
50631;SDS011;49583;45.590;-122.498;2023-09-30T04:28:31;3.60;;;2.10;;
50631;SDS011;49583;45.590;-122.498;2023-09-30T04:30:44;3.90;;;2.10;;
50631;SDS011;49583;45.590;-122.498;2023-09-30T04:33:07;2.20;;;2.00;;
50631;SDS011;49583;45.590;-122.498;2023-09-30T04:35:20;2.70;;;1.90;;
50631;SDS011;49583;45.590;-122.498;2023-09-30T04:37:34;2.90;;;1.90;;
50631;SDS011;49583;45.590;-122.498;2023-09-30T04:39:47;2.90;;;2.20;;
50631;SDS011;49583;45.590;-122.498;2023-09-30T04:42:01;4.40;;;2.10;;
50631;SDS011;49583;45.590;-122.498;2023-09-30T04:44:18;3.10;;;1.90;;
50631;SDS011;49583;45.590;-122.498;2023-09-30T04:46:34;5.60;;;2.10;;
50631;SDS011;49583;45.590;-122.498;2023-09-30T04:48:49;6.00;;;2.10;;
50631;SDS011;49583;45.590;-122.498;2023-09-30T04:51:05;4.10;;;2.40;;
50631;SDS011;49583;45.590;-122.498;2023-09-30T04:53:30;2.90;;;2.60;;
50631;SDS011;49583;45.590;-122.498;2023-09-30T04:55:43;3.60;;;2.40;;
50631;SDS011;49583;45.590;-122.498;2023-09-30T04:57:57;5.20;;;2.40;;
50631;SDS011;49583;45.590;-122.498;2023-09-30T05:00:11;6.50;;;2.20;;
50631;SDS011;49583;45.590;-122.498;2023-09-30T05:02:27;3.40;;;2.10;;
50631;SDS011;49583;45.590;-122.498;2023-09-30T05:04:39;3.40;;;2.30;;
50631;SDS011;49583;45.590;-122.498;2023-09-30T05:06:52;3.20;;;1.80;;
50631;SDS011;49583;45.590;-122.498;2023-09-30T05:09:05;3.30;;;2.20;;
50631;SDS011;49583;45.590;-122.498;2023-09-30T05:11:21;5.80;;;2.60;;
50631;SDS011;49583;45.590;-122.498;2023-09-30T05:13:33;2.80;;;2.00;;
50631;SDS011;49583;45.590;-122.498;2023-09-30T05:15:46;3.80;;;2.30;;
50631;SDS011;49583;45.590;-122.498;2023-09-30T05:18:00;3.20;;;2.50;;
50631;SDS011;49583;45.590;-122.498;2023-09-30T05:20:16;2.20;;;2.00;;
50631;SDS011;49583;45.590;-122.498;2023-09-30T05:22:28;4.50;;;1.90;;
50631;SDS011;49583;45.590;-122.498;2023-09-30T05:24:41;4.00;;;2.30;;
50631;SDS011;49583;45.590;-122.498;2023-09-30T05:26:54;2.50;;;2.30;;
50631;SDS011;49583;45.590;-122.498;2023-09-30T05:29:07;2.90;;;2.40;;
50631;SDS011;49583;45.590;-122.498;2023-09-30T05:31:20;2.80;;;2.60;;
50631;SDS011;49583;45.590;-122.498;2023-09-30T05:33:36;3.70;;;1.90;;
50631;SDS011;49583;45.590;-122.498;2023-09-30T05:35:51;6.80;;;3.10;;
50631;SDS011;49583;45.590;-122.498;2023-09-30T05:38:06;3.10;;;2.70;;
50631;SDS011;49583;45.590;-122.498;2023-09-30T05:40:20;4.40;;;2.90;;
50631;SDS011;49583;45.590;-122.498;2023-09-30T05:42:34;3.60;;;2.50;;
50631;SDS011;49583;45.590;-122.498;2023-09-30T05:44:47;3.30;;;2.60;;
50631;SDS011;49583;45.590;-122.498;2023-09-30T05:47:01;2.60;;;2.40;;
50631;SDS011;49583;45.590;-122.498;2023-09-30T05:49:13;4.50;;;2.60;;
50631;SDS011;49583;45.590;-122.498;2023-09-30T05:51:27;4.30;;;2.70;;
50631;SDS011;49583;45.590;-122.498;2023-09-30T05:53:41;2.10;;;1.90;;
50631;SDS011;49583;45.590;-122.498;2023-09-30T05:55:55;2.70;;;2.40;;
50631;SDS011;49583;45.590;-122.498;2023-09-30T05:58:14;3.70;;;2.90;;
50631;SDS011;49583;45.590;-122.498;2023-09-30T06:00:26;4.30;;;2.70;;
50631;SDS011;49583;45.590;-122.498;2023-09-30T06:02:46;3.80;;;2.70;;
50631;SDS011;49583;45.590;-122.498;2023-09-30T06:05:02;3.30;;;3.00;;
50631;SDS011;49583;45.590;-122.498;2023-09-30T06:07:16;4.50;;;3.00;;
50631;SDS011;49583;45.590;-122.498;2023-09-30T06:09:35;6.60;;;3.30;;
50631;SDS011;49583;45.590;-122.498;2023-09-30T06:11:48;3.50;;;3.00;;
50631;SDS011;49583;45.590;-122.498;2023-09-30T06:14:00;7.90;;;4.00;;
50631;SDS011;49583;45.590;-122.498;2023-09-30T06:16:13;6.20;;;3.70;;
50631;SDS011;49583;45.590;-122.498;2023-09-30T06:18:37;4.40;;;3.90;;
50631;SDS011;49583;45.590;-122.498;2023-09-30T06:21:00;6.30;;;3.90;;
50631;SDS011;49583;45.590;-122.498;2023-09-30T06:23:17;7.40;;;4.20;;
50631;SDS011;49583;45.590;-122.498;2023-09-30T06:25:29;5.40;;;4.00;;
50631;SDS011;49583;45.590;-122.498;2023-09-30T06:27:46;8.20;;;4.10;;
50631;SDS011;49583;45.590;-122.498;2023-09-30T06:30:04;6.10;;;4.40;;
50631;SDS011;49583;45.590;-122.498;2023-09-30T06:32:29;4.50;;;3.80;;
50631;SDS011;49583;45.590;-122.498;2023-09-30T06:34:46;7.30;;;4.50;;
50631;SDS011;49583;45.590;-122.498;2023-09-30T06:36:59;7.70;;;4.10;;
50631;SDS011;49583;45.590;-122.498;2023-09-30T06:39:15;6.70;;;4.30;;
50631;SDS011;49583;45.590;-122.498;2023-09-30T06:41:28;5.00;;;4.50;;
50631;SDS011;49583;45.590;-122.498;2023-09-30T06:43:42;7.30;;;6.30;;
50631;SDS011;49583;45.590;-122.498;2023-09-30T06:45:54;8.00;;;4.40;;
50631;SDS011;49583;45.590;-122.498;2023-09-30T06:48:18;11.50;;;4.70;;
50631;SDS011;49583;45.590;-122.498;2023-09-30T06:50:42;7.20;;;5.00;;
50631;SDS011;49583;45.590;-122.498;2023-09-30T06:52:59;5.40;;;4.50;;
50631;SDS011;49583;45.590;-122.498;2023-09-30T06:55:16;12.50;;;4.70;;
50631;SDS011;49583;45.590;-122.498;2023-09-30T06:57:29;7.00;;;4.80;;
50631;SDS011;49583;45.590;-122.498;2023-09-30T06:59:42;8.40;;;4.40;;
50631;SDS011;49583;45.590;-122.498;2023-09-30T07:02:06;5.40;;;4.70;;
50631;SDS011;49583;45.590;-122.498;2023-09-30T07:04:19;5.90;;;4.60;;
50631;SDS011;49583;45.590;-122.498;2023-09-30T07:06:33;5.70;;;4.10;;
50631;SDS011;49583;45.590;-122.498;2023-09-30T07:08:46;6.30;;;4.70;;
50631;SDS011;49583;45.590;-122.498;2023-09-30T07:10:59;7.00;;;4.80;;
50631;SDS011;49583;45.590;-122.498;2023-09-30T07:13:12;13.50;;;5.10;;
50631;SDS011;49583;45.590;-122.498;2023-09-30T07:15:33;5.90;;;4.40;;
50631;SDS011;49583;45.590;-122.498;2023-09-30T07:17:46;6.40;;;4.70;;
50631;SDS011;49583;45.590;-122.498;2023-09-30T07:20:02;7.20;;;4.30;;
50631;SDS011;49583;45.590;-122.498;2023-09-30T07:22:17;4.60;;;4.20;;
50631;SDS011;49583;45.590;-122.498;2023-09-30T07:25:12;8.40;;;4.00;;
50631;SDS011;49583;45.590;-122.498;2023-09-30T07:27:25;7.70;;;4.40;;
50631;SDS011;49583;45.590;-122.498;2023-09-30T07:29:41;5.50;;;4.50;;
50631;SDS011;49583;45.590;-122.498;2023-09-30T07:31:56;4.60;;;4.20;;
50631;SDS011;49583;45.590;-122.498;2023-09-30T07:34:09;5.00;;;4.30;;
50631;SDS011;49583;45.590;-122.498;2023-09-30T07:36:25;6.70;;;4.60;;
50631;SDS011;49583;45.590;-122.498;2023-09-30T07:38:44;7.40;;;4.50;;
50631;SDS011;49583;45.590;-122.498;2023-09-30T07:40:57;8.60;;;5.00;;
50631;SDS011;49583;45.590;-122.498;2023-09-30T07:43:14;13.40;;;4.90;;
50631;SDS011;49583;45.590;-122.498;2023-09-30T07:45:31;7.10;;;4.70;;
50631;SDS011;49583;45.590;-122.498;2023-09-30T07:47:43;9.20;;;5.60;;
50631;SDS011;49583;45.590;-122.498;2023-09-30T07:50:16;5.60;;;4.80;;
50631;SDS011;49583;45.590;-122.498;2023-09-30T07:52:29;6.50;;;4.60;;
50631;SDS011;49583;45.590;-122.498;2023-09-30T07:54:45;7.30;;;4.80;;
50631;SDS011;49583;45.590;-122.498;2023-09-30T07:56:57;5.70;;;4.70;;
50631;SDS011;49583;45.590;-122.498;2023-09-30T07:59:13;8.00;;;4.60;;
50631;SDS011;49583;45.590;-122.498;2023-09-30T08:01:28;8.70;;;4.90;;
50631;SDS011;49583;45.590;-122.498;2023-09-30T08:03:52;8.50;;;5.00;;
50631;SDS011;49583;45.590;-122.498;2023-09-30T08:06:16;5.20;;;4.40;;
50631;SDS011;49583;45.590;-122.498;2023-09-30T08:08:30;8.10;;;5.00;;
50631;SDS011;49583;45.590;-122.498;2023-09-30T08:10:42;7.90;;;4.80;;
50631;SDS011;49583;45.590;-122.498;2023-09-30T08:15:15;5.40;;;4.20;;
50631;SDS011;49583;45.590;-122.498;2023-09-30T08:17:30;5.50;;;4.80;;
50631;SDS011;49583;45.590;-122.498;2023-09-30T08:19:43;7.50;;;5.00;;
50631;SDS011;49583;45.590;-122.498;2023-09-30T08:21:56;6.10;;;4.60;;
50631;SDS011;49583;45.590;-122.498;2023-09-30T08:24:09;8.20;;;5.30;;
50631;SDS011;49583;45.590;-122.498;2023-09-30T08:26:24;7.40;;;5.10;;
50631;SDS011;49583;45.590;-122.498;2023-09-30T08:28:40;7.00;;;5.00;;
50631;SDS011;49583;45.590;-122.498;2023-09-30T08:30:55;10.40;;;5.40;;
50631;SDS011;49583;45.590;-122.498;2023-09-30T08:46:15;7.20;;;5.40;;
50631;SDS011;49583;45.590;-122.498;2023-09-30T08:48:28;6.50;;;5.00;;
50631;SDS011;49583;45.590;-122.498;2023-09-30T08:50:42;6.80;;;5.70;;
50631;SDS011;49583;45.590;-122.498;2023-09-30T08:52:58;6.10;;;5.30;;
50631;SDS011;49583;45.590;-122.498;2023-09-30T08:55:13;7.40;;;5.20;;
50631;SDS011;49583;45.590;-122.498;2023-09-30T08:57:34;6.00;;;4.80;;
50631;SDS011;49583;45.590;-122.498;2023-09-30T08:59:59;7.70;;;4.80;;
50631;SDS011;49583;45.590;-122.498;2023-09-30T09:02:16;10.50;;;5.20;;
50631;SDS011;49583;45.590;-122.498;2023-09-30T09:04:29;7.30;;;5.50;;
50631;SDS011;49583;45.590;-122.498;2023-09-30T09:06:46;7.00;;;5.60;;
50631;SDS011;49583;45.590;-122.498;2023-09-30T09:09:07;9.00;;;5.60;;
50631;SDS011;49583;45.590;-122.498;2023-09-30T09:11:36;7.40;;;5.60;;
50631;SDS011;49583;45.590;-122.498;2023-09-30T09:13:49;8.20;;;5.80;;
50631;SDS011;49583;45.590;-122.498;2023-09-30T09:16:12;6.60;;;6.10;;
50631;SDS011;49583;45.590;-122.498;2023-09-30T09:18:32;7.10;;;5.40;;
50631;SDS011;49583;45.590;-122.498;2023-09-30T09:20:46;9.70;;;6.00;;
50631;SDS011;49583;45.590;-122.498;2023-09-30T09:22:59;7.20;;;6.20;;
50631;SDS011;49583;45.590;-122.498;2023-09-30T09:25:16;10.50;;;5.80;;
50631;SDS011;49583;45.590;-122.498;2023-09-30T09:27:31;7.50;;;5.90;;
50631;SDS011;49583;45.590;-122.498;2023-09-30T09:29:49;8.30;;;5.80;;
50631;SDS011;49583;45.590;-122.498;2023-09-30T09:32:10;6.50;;;5.80;;
50631;SDS011;49583;45.590;-122.498;2023-09-30T09:34:24;8.60;;;5.90;;
50631;SDS011;49583;45.590;-122.498;2023-09-30T09:36:40;7.70;;;6.10;;
50631;SDS011;49583;45.590;-122.498;2023-09-30T09:38:53;6.00;;;5.40;;
50631;SDS011;49583;45.590;-122.498;2023-09-30T09:41:26;7.50;;;6.00;;
50631;SDS011;49583;45.590;-122.498;2023-09-30T09:43:38;9.50;;;5.60;;
50631;SDS011;49583;45.590;-122.498;2023-09-30T09:45:56;11.00;;;6.20;;
50631;SDS011;49583;45.590;-122.498;2023-09-30T09:48:11;7.10;;;6.40;;
50631;SDS011;49583;45.590;-122.498;2023-09-30T09:50:24;7.00;;;6.30;;
50631;SDS011;49583;45.590;-122.498;2023-09-30T09:52:51;6.60;;;6.00;;
50631;SDS011;49583;45.590;-122.498;2023-09-30T09:55:09;6.70;;;6.10;;
50631;SDS011;49583;45.590;-122.498;2023-09-30T09:57:28;6.70;;;6.10;;
50631;SDS011;49583;45.590;-122.498;2023-09-30T09:59:46;12.00;;;6.20;;
50631;SDS011;49583;45.590;-122.498;2023-09-30T10:01:59;7.20;;;6.10;;
50631;SDS011;49583;45.590;-122.498;2023-09-30T10:04:15;6.30;;;5.70;;
50631;SDS011;49583;45.590;-122.498;2023-09-30T10:06:27;9.10;;;6.70;;
50631;SDS011;49583;45.590;-122.498;2023-09-30T10:08:48;12.20;;;6.30;;
50631;SDS011;49583;45.590;-122.498;2023-09-30T10:11:06;10.40;;;5.80;;
50631;SDS011;49583;45.590;-122.498;2023-09-30T10:19:10;12.10;;;6.90;;
50631;SDS011;49583;45.590;-122.498;2023-09-30T10:21:24;6.70;;;5.90;;
50631;SDS011;49583;45.590;-122.498;2023-09-30T10:23:40;6.50;;;6.00;;
50631;SDS011;49583;45.590;-122.498;2023-09-30T10:28:34;8.60;;;6.70;;
50631;SDS011;49583;45.590;-122.498;2023-09-30T10:36:35;9.00;;;6.80;;
50631;SDS011;49583;45.590;-122.498;2023-09-30T10:38:50;13.20;;;6.50;;
50631;SDS011;49583;45.590;-122.498;2023-09-30T10:41:03;7.90;;;6.70;;
50631;SDS011;49583;45.590;-122.498;2023-09-30T10:45:51;9.90;;;6.50;;
50631;SDS011;49583;45.590;-122.498;2023-09-30T10:50:53;10.30;;;6.50;;
50631;SDS011;49583;45.590;-122.498;2023-09-30T10:53:07;7.40;;;5.60;;
50631;SDS011;49583;45.590;-122.498;2023-09-30T10:55:21;7.30;;;6.50;;
50631;SDS011;49583;45.590;-122.498;2023-09-30T10:57:34;13.20;;;6.70;;
50631;SDS011;49583;45.590;-122.498;2023-09-30T10:59:48;8.70;;;6.90;;
50631;SDS011;49583;45.590;-122.498;2023-09-30T11:02:22;6.90;;;6.20;;
50631;SDS011;49583;45.590;-122.498;2023-09-30T11:04:47;15.00;;;6.70;;
50631;SDS011;49583;45.590;-122.498;2023-09-30T11:07:00;8.40;;;6.50;;
50631;SDS011;49583;45.590;-122.498;2023-09-30T11:09:17;8.30;;;6.30;;
50631;SDS011;49583;45.590;-122.498;2023-09-30T11:11:39;10.70;;;7.20;;
50631;SDS011;49583;45.590;-122.498;2023-09-30T11:13:56;10.10;;;7.40;;
50631;SDS011;49583;45.590;-122.498;2023-09-30T11:16:08;13.40;;;7.40;;
50631;SDS011;49583;45.590;-122.498;2023-09-30T11:18:21;9.50;;;7.60;;
50631;SDS011;49583;45.590;-122.498;2023-09-30T11:20:34;9.80;;;7.00;;
50631;SDS011;49583;45.590;-122.498;2023-09-30T11:22:47;11.00;;;7.50;;
50631;SDS011;49583;45.590;-122.498;2023-09-30T11:25:00;11.10;;;7.20;;
50631;SDS011;49583;45.590;-122.498;2023-09-30T11:27:13;13.10;;;7.90;;
50631;SDS011;49583;45.590;-122.498;2023-09-30T11:29:34;9.00;;;6.70;;
50631;SDS011;49583;45.590;-122.498;2023-09-30T11:31:57;7.90;;;7.10;;
50631;SDS011;49583;45.590;-122.498;2023-09-30T11:34:10;8.20;;;6.70;;
50631;SDS011;49583;45.590;-122.498;2023-09-30T11:36:24;9.20;;;7.10;;
50631;SDS011;49583;45.590;-122.498;2023-09-30T11:38:36;9.00;;;7.30;;
50631;SDS011;49583;45.590;-122.498;2023-09-30T11:41:00;14.30;;;7.70;;
50631;SDS011;49583;45.590;-122.498;2023-09-30T11:43:14;11.90;;;7.60;;
50631;SDS011;49583;45.590;-122.498;2023-09-30T11:45:26;10.10;;;8.50;;
50631;SDS011;49583;45.590;-122.498;2023-09-30T11:47:39;8.50;;;7.60;;
50631;SDS011;49583;45.590;-122.498;2023-09-30T11:49:54;7.20;;;6.50;;
50631;SDS011;49583;45.590;-122.498;2023-09-30T11:52:06;8.90;;;7.40;;
50631;SDS011;49583;45.590;-122.498;2023-09-30T11:54:20;13.50;;;8.10;;
50631;SDS011;49583;45.590;-122.498;2023-09-30T11:56:37;12.60;;;7.80;;
50631;SDS011;49583;45.590;-122.498;2023-09-30T11:58:50;8.50;;;7.40;;
50631;SDS011;49583;45.590;-122.498;2023-09-30T12:01:04;8.50;;;7.50;;
50631;SDS011;49583;45.590;-122.498;2023-09-30T12:03:19;11.70;;;6.80;;
50631;SDS011;49583;45.590;-122.498;2023-09-30T12:05:31;9.70;;;8.10;;
50631;SDS011;49583;45.590;-122.498;2023-09-30T12:07:44;9.00;;;7.20;;
50631;SDS011;49583;45.590;-122.498;2023-09-30T12:09:57;8.40;;;7.20;;
50631;SDS011;49583;45.590;-122.498;2023-09-30T12:12:10;11.00;;;7.30;;
50631;SDS011;49583;45.590;-122.498;2023-09-30T12:14:24;9.70;;;7.10;;
50631;SDS011;49583;45.590;-122.498;2023-09-30T12:16:37;12.90;;;7.60;;
50631;SDS011;49583;45.590;-122.498;2023-09-30T12:18:52;10.80;;;8.00;;
50631;SDS011;49583;45.590;-122.498;2023-09-30T12:21:05;9.20;;;7.70;;
50631;SDS011;49583;45.590;-122.498;2023-09-30T12:23:18;9.00;;;7.80;;
50631;SDS011;49583;45.590;-122.498;2023-09-30T12:25:31;13.60;;;8.30;;
50631;SDS011;49583;45.590;-122.498;2023-09-30T12:27:44;9.80;;;8.20;;
50631;SDS011;49583;45.590;-122.498;2023-09-30T12:29:57;10.00;;;8.30;;
50631;SDS011;49583;45.590;-122.498;2023-09-30T12:32:12;10.00;;;7.10;;
50631;SDS011;49583;45.590;-122.498;2023-09-30T12:34:24;10.40;;;7.50;;
50631;SDS011;49583;45.590;-122.498;2023-09-30T12:36:38;9.10;;;7.80;;
50631;SDS011;49583;45.590;-122.498;2023-09-30T12:38:51;9.50;;;7.70;;
50631;SDS011;49583;45.590;-122.498;2023-09-30T12:41:04;11.40;;;8.60;;
50631;SDS011;49583;45.590;-122.498;2023-09-30T12:43:16;13.10;;;8.20;;
50631;SDS011;49583;45.590;-122.498;2023-09-30T12:45:29;12.30;;;8.70;;
50631;SDS011;49583;45.590;-122.498;2023-09-30T12:47:42;14.40;;;9.50;;
50631;SDS011;49583;45.590;-122.498;2023-09-30T12:49:54;13.20;;;8.60;;
50631;SDS011;49583;45.590;-122.498;2023-09-30T12:52:07;15.40;;;8.10;;
50631;SDS011;49583;45.590;-122.498;2023-09-30T12:54:20;10.10;;;8.00;;
50631;SDS011;49583;45.590;-122.498;2023-09-30T12:56:32;14.90;;;9.20;;
50631;SDS011;49583;45.590;-122.498;2023-09-30T12:58:45;13.10;;;8.60;;
50631;SDS011;49583;45.590;-122.498;2023-09-30T13:00:59;11.30;;;9.20;;
50631;SDS011;49583;45.590;-122.498;2023-09-30T13:03:28;11.50;;;8.90;;
50631;SDS011;49583;45.590;-122.498;2023-09-30T13:05:40;11.90;;;9.30;;
50631;SDS011;49583;45.590;-122.498;2023-09-30T13:07:53;14.60;;;9.40;;
50631;SDS011;49583;45.590;-122.498;2023-09-30T13:10:08;14.70;;;9.40;;
50631;SDS011;49583;45.590;-122.498;2023-09-30T13:12:21;11.30;;;9.00;;
50631;SDS011;49583;45.590;-122.498;2023-09-30T13:14:34;15.70;;;8.70;;
50631;SDS011;49583;45.590;-122.498;2023-09-30T13:16:47;12.50;;;8.70;;
50631;SDS011;49583;45.590;-122.498;2023-09-30T13:19:00;15.50;;;9.40;;
50631;SDS011;49583;45.590;-122.498;2023-09-30T13:21:13;10.80;;;9.70;;
50631;SDS011;49583;45.590;-122.498;2023-09-30T13:23:25;12.60;;;9.50;;
50631;SDS011;49583;45.590;-122.498;2023-09-30T13:25:38;15.00;;;9.30;;
50631;SDS011;49583;45.590;-122.498;2023-09-30T13:27:50;12.40;;;9.60;;
50631;SDS011;49583;45.590;-122.498;2023-09-30T13:30:03;11.60;;;9.40;;
50631;SDS011;49583;45.590;-122.498;2023-09-30T13:32:18;14.50;;;10.20;;
50631;SDS011;49583;45.590;-122.498;2023-09-30T13:34:30;12.40;;;9.20;;